createdAt,value
2018-06-12T00:00:10.008Z,931.54
2018-06-12T00:01:10.007Z,931.58
2018-06-12T00:02:10.008Z,931.60
2018-06-12T00:03:10.012Z,931.54
2018-06-12T00:04:10.015Z,931.52
2018-06-12T00:05:10.020Z,931.54
2018-06-12T00:06:10.024Z,931.49
2018-06-12T00:07:10.028Z,931.48
2018-06-12T00:08:10.028Z,931.49
2018-06-12T00:09:10.030Z,931.51
2018-06-12T00:10:10.035Z,931.48
2018-06-12T00:11:10.036Z,931.47
2018-06-12T00:12:10.041Z,931.49
2018-06-12T00:13:10.042Z,931.48
2018-06-12T00:14:10.044Z,931.44
2018-06-12T00:15:10.048Z,931.41
2018-06-12T00:16:10.050Z,931.38
2018-06-12T00:17:10.053Z,931.46
2018-06-12T00:18:10.057Z,931.43
2018-06-12T00:19:10.060Z,931.37
2018-06-12T00:20:10.062Z,931.37
2018-06-12T00:21:10.065Z,931.38
2018-06-12T00:22:10.066Z,931.35
2018-06-12T00:23:10.070Z,931.37
2018-06-12T00:24:10.074Z,931.36
2018-06-12T00:25:10.078Z,931.36
2018-06-12T00:26:10.084Z,931.34
2018-06-12T00:27:10.083Z,931.34
2018-06-12T00:28:10.085Z,931.37
2018-06-12T00:29:10.089Z,931.41
2018-06-12T00:30:10.090Z,931.37
2018-06-12T00:31:10.094Z,931.45
2018-06-12T00:32:10.097Z,931.40
2018-06-12T00:33:10.100Z,931.37
2018-06-12T00:34:10.101Z,931.37
2018-06-12T00:35:10.104Z,931.35
2018-06-12T00:36:10.108Z,931.38
2018-06-12T00:38:10.113Z,931.39
2018-06-12T00:39:10.116Z,931.40
2018-06-12T00:40:10.118Z,931.39
2018-06-12T00:41:10.121Z,931.37
2018-06-12T00:42:10.123Z,931.37
2018-06-12T00:43:10.126Z,931.34
2018-06-12T00:44:10.130Z,931.28
2018-06-12T00:45:10.133Z,931.30
2018-06-12T00:46:10.136Z,931.28
2018-06-12T00:47:10.137Z,931.30
2018-06-12T00:48:10.155Z,931.30
2018-06-12T00:49:10.143Z,931.34
2018-06-12T00:50:10.145Z,931.35
2018-06-12T00:51:10.148Z,931.33
2018-06-12T00:52:10.151Z,931.34
2018-06-12T00:53:10.153Z,931.34
2018-06-12T00:54:10.157Z,931.32
2018-06-12T00:55:10.158Z,931.33
2018-06-12T00:56:10.162Z,931.34
2018-06-12T00:57:10.164Z,931.30
2018-06-12T00:58:10.166Z,931.33
2018-06-12T00:59:10.171Z,931.32
2018-06-12T01:00:10.177Z,931.31
2018-06-12T01:01:10.176Z,931.29
2018-06-12T01:02:10.176Z,931.27
2018-06-12T01:03:10.181Z,931.31
2018-06-12T01:04:10.183Z,931.29
2018-06-12T01:05:10.187Z,931.30
2018-06-12T01:06:10.188Z,931.33
2018-06-12T01:07:10.190Z,931.36
2018-06-12T01:08:10.194Z,931.39
2018-06-12T01:09:10.198Z,931.41
2018-06-12T01:10:10.198Z,931.48
2018-06-12T01:11:10.202Z,931.47
2018-06-12T01:12:10.205Z,931.48
2018-06-12T01:13:10.209Z,931.46
2018-06-12T01:14:10.210Z,931.45
2018-06-12T01:15:10.212Z,931.44
2018-06-12T01:16:10.215Z,931.43
2018-06-12T01:17:10.218Z,931.45
2018-06-12T01:18:10.220Z,931.40
2018-06-12T01:19:10.224Z,931.38
2018-06-12T01:20:10.226Z,931.39
2018-06-12T01:21:10.229Z,931.40
2018-06-12T01:22:10.231Z,931.36
2018-06-12T01:23:10.239Z,931.41
2018-06-12T01:24:10.238Z,931.44
2018-06-12T01:25:10.240Z,931.48
2018-06-12T01:26:10.244Z,931.52
2018-06-12T01:27:10.244Z,931.50
2018-06-12T01:28:10.249Z,931.53
2018-06-12T01:29:10.254Z,931.54
2018-06-12T01:30:10.257Z,931.52
2018-06-12T01:31:10.256Z,931.47
2018-06-12T01:32:10.259Z,931.50
2018-06-12T01:33:10.264Z,931.55
2018-06-12T01:34:10.266Z,931.59
2018-06-12T01:35:10.267Z,931.57
2018-06-12T01:36:10.271Z,931.56
2018-06-12T01:37:10.273Z,931.56
2018-06-12T01:38:10.275Z,931.57
2018-06-12T01:39:10.278Z,931.57
2018-06-12T01:40:10.281Z,931.56
2018-06-12T01:41:10.285Z,931.56
2018-06-12T01:42:10.286Z,931.55
2018-06-12T01:43:10.291Z,931.51
2018-06-12T01:44:10.292Z,931.48
2018-06-12T01:45:10.295Z,931.47
2018-06-12T01:46:10.296Z,931.45
2018-06-12T01:47:10.299Z,931.43
2018-06-12T01:48:10.306Z,931.40
2018-06-12T01:49:10.305Z,931.42
2018-06-12T01:50:10.307Z,931.37
2018-06-12T01:51:10.313Z,931.42
2018-06-12T01:52:10.313Z,931.40
2018-06-12T01:53:10.315Z,931.42
2018-06-12T01:54:10.316Z,931.44
2018-06-12T01:55:10.320Z,931.41
2018-06-12T01:56:10.321Z,931.40
2018-06-12T01:57:10.325Z,931.40
2018-06-12T01:58:10.326Z,931.41
2018-06-12T01:59:10.329Z,931.41
2018-06-12T02:00:10.332Z,931.45
2018-06-12T02:01:10.340Z,931.45
2018-06-12T02:02:10.337Z,931.47
2018-06-12T02:03:10.340Z,931.47
2018-06-12T02:04:10.341Z,931.46
2018-06-12T02:05:10.344Z,931.44
2018-06-12T02:06:10.345Z,931.44
2018-06-12T02:07:10.349Z,931.41
2018-06-12T02:08:10.351Z,931.38
2018-06-12T02:09:10.354Z,931.38
2018-06-12T02:10:10.355Z,931.44
2018-06-12T02:11:10.358Z,931.47
2018-06-12T02:12:10.361Z,931.47
2018-06-12T02:13:10.364Z,931.52
2018-06-12T02:14:10.367Z,931.58
2018-06-12T02:15:10.373Z,931.53
2018-06-12T02:16:10.372Z,931.56
2018-06-12T02:17:10.376Z,931.56
2018-06-12T02:18:10.377Z,931.53
2018-06-12T02:19:10.379Z,931.52
2018-06-12T02:20:10.383Z,931.53
2018-06-12T02:21:10.384Z,931.54
2018-06-12T02:22:10.386Z,931.52
2018-06-12T02:23:10.389Z,931.51
2018-06-12T02:24:10.393Z,931.50
2018-06-12T02:25:10.395Z,931.48
2018-06-12T02:26:10.397Z,931.41
2018-06-12T02:27:10.402Z,931.40
2018-06-12T02:28:10.403Z,931.43
2018-06-12T02:29:10.405Z,931.36
2018-06-12T02:30:10.408Z,931.40
2018-06-12T02:31:10.414Z,931.41
2018-06-12T02:32:10.413Z,931.42
2018-06-12T02:33:10.416Z,931.36
2018-06-12T02:34:10.420Z,931.43
2018-06-12T02:35:10.420Z,931.41
2018-06-12T02:36:10.424Z,931.42
2018-06-12T02:37:10.427Z,931.39
2018-06-12T02:38:10.429Z,931.36
2018-06-12T02:39:10.431Z,931.37
2018-06-12T02:40:10.434Z,931.37
2018-06-12T02:41:10.441Z,931.36
2018-06-12T02:42:10.439Z,931.37
2018-06-12T02:43:10.440Z,931.32
2018-06-12T02:44:10.445Z,931.38
2018-06-12T02:45:10.447Z,931.37
2018-06-12T02:46:10.449Z,931.33
2018-06-12T02:47:10.452Z,931.38
2018-06-12T02:48:10.455Z,931.35
2018-06-12T02:49:10.467Z,931.35
2018-06-12T02:50:10.459Z,931.34
2018-06-12T02:51:10.463Z,931.32
2018-06-12T02:52:10.466Z,931.31
2018-06-12T02:53:10.468Z,931.32
2018-06-12T02:54:10.471Z,931.29
2018-06-12T02:55:10.476Z,931.25
2018-06-12T02:56:10.482Z,931.27
2018-06-12T02:57:10.485Z,931.28
2018-06-12T02:58:10.483Z,931.25
2018-06-12T02:59:10.486Z,931.24
2018-06-12T03:00:10.488Z,931.22
2018-06-12T03:01:10.491Z,931.25
2018-06-12T03:02:10.492Z,931.19
2018-06-12T03:03:10.495Z,931.18
2018-06-12T03:04:10.501Z,931.17
2018-06-12T03:05:10.500Z,931.13
2018-06-12T03:06:10.502Z,931.09
2018-06-12T03:07:10.505Z,931.08
2018-06-12T03:08:10.508Z,931.08
2018-06-12T03:09:10.514Z,931.07
2018-06-12T03:10:10.512Z,931.07
2018-06-12T03:11:10.516Z,931.11
2018-06-12T03:12:10.518Z,931.12
2018-06-12T03:13:10.520Z,931.17
2018-06-12T03:14:10.523Z,931.13
2018-06-12T03:15:10.525Z,931.11
2018-06-12T03:16:10.527Z,931.09
2018-06-12T03:17:10.531Z,931.05
2018-06-12T03:18:10.531Z,931.09
2018-06-12T03:19:10.540Z,931.05
2018-06-12T03:20:10.537Z,931.05
2018-06-12T03:21:10.539Z,931.07
2018-06-12T03:22:10.543Z,931.10
2018-06-12T03:23:10.556Z,931.11
2018-06-12T03:24:10.544Z,931.13
2018-06-12T03:25:10.547Z,931.13
2018-06-12T03:26:10.548Z,931.14
2018-06-12T03:27:10.551Z,931.11
2018-06-12T03:28:10.553Z,931.10
2018-06-12T03:29:10.555Z,931.08
2018-06-12T03:30:10.556Z,931.09
2018-06-12T03:31:10.560Z,931.10
2018-06-12T03:32:10.560Z,931.15
2018-06-12T03:33:10.564Z,931.12
2018-06-12T03:34:10.565Z,931.17
2018-06-12T03:35:10.568Z,931.19
2018-06-12T03:36:10.569Z,931.24
2018-06-12T03:37:10.573Z,931.32
2018-06-12T03:38:10.573Z,931.33
2018-06-12T03:39:10.576Z,931.38
2018-06-12T03:40:10.577Z,931.37
2018-06-12T03:41:10.581Z,931.35
2018-06-12T03:42:10.584Z,931.36
2018-06-12T03:43:10.585Z,931.35
2018-06-12T03:44:10.591Z,931.35
2018-06-12T03:45:10.589Z,931.34
2018-06-12T03:46:10.596Z,931.33
2018-06-12T03:47:10.594Z,931.31
2018-06-12T03:48:10.595Z,931.32
2018-06-12T03:49:10.600Z,931.30
2018-06-12T03:50:10.601Z,931.28
2018-06-12T03:51:10.605Z,931.30
2018-06-12T03:52:10.604Z,931.29
2018-06-12T03:53:10.609Z,931.27
2018-06-12T03:54:10.610Z,931.29
2018-06-12T03:55:10.616Z,931.27
2018-06-12T03:56:10.614Z,931.30
2018-06-12T03:57:10.618Z,931.30
2018-06-12T03:58:10.617Z,931.33
2018-06-12T03:59:10.620Z,931.35
2018-06-12T04:00:10.623Z,931.41
2018-06-12T04:01:10.627Z,931.40
2018-06-12T04:02:10.627Z,931.40
2018-06-12T04:03:10.629Z,931.43
2018-06-12T04:04:10.632Z,931.47
2018-06-12T04:05:10.634Z,931.46
2018-06-12T04:06:10.636Z,931.45
2018-06-12T04:07:10.639Z,931.45
2018-06-12T04:08:10.640Z,931.42
2018-06-12T04:09:10.643Z,931.44
2018-06-12T04:10:10.645Z,931.41
2018-06-12T04:11:10.691Z,931.41
2018-06-12T04:12:10.650Z,931.43
2018-06-12T04:13:10.654Z,931.43
2018-06-12T04:14:10.655Z,931.45
2018-06-12T04:15:10.657Z,931.41
2018-06-12T04:16:10.660Z,931.42
2018-06-12T04:17:10.664Z,931.40
2018-06-12T04:18:10.662Z,931.43
2018-06-12T04:19:10.667Z,931.43
2018-06-12T04:20:10.668Z,931.42
2018-06-12T04:21:10.672Z,931.41
2018-06-12T04:22:10.672Z,931.45
2018-06-12T04:23:10.675Z,931.42
2018-06-12T04:24:10.678Z,931.42
2018-06-12T04:25:10.680Z,931.40
2018-06-12T04:26:10.684Z,931.40
2018-06-12T04:27:10.685Z,931.42
2018-06-12T04:28:10.687Z,931.46
2018-06-12T04:29:10.691Z,931.48
2018-06-12T04:30:10.691Z,931.52
2018-06-12T04:31:10.694Z,931.54
2018-06-12T04:32:10.696Z,931.56
2018-06-12T04:33:10.700Z,931.53
2018-06-12T04:34:10.700Z,931.50
2018-06-12T04:35:10.703Z,931.49
2018-06-12T04:36:10.704Z,931.46
2018-06-12T04:37:10.708Z,931.44
2018-06-12T04:38:10.709Z,931.47
2018-06-12T04:39:10.711Z,931.43
2018-06-12T04:40:10.714Z,931.46
2018-06-12T04:41:10.717Z,931.46
2018-06-12T04:42:10.717Z,931.44
2018-06-12T04:43:10.720Z,931.42
2018-06-12T04:44:10.723Z,931.42
2018-06-12T04:45:10.727Z,931.43
2018-06-12T04:46:10.729Z,931.44
2018-06-12T04:47:10.730Z,931.46
2018-06-12T04:48:10.733Z,931.45
2018-06-12T04:49:10.741Z,931.47
2018-06-12T04:50:10.737Z,931.52
2018-06-12T04:51:10.740Z,931.52
2018-06-12T04:52:10.743Z,931.50
2018-06-12T04:53:10.746Z,931.50
2018-06-12T04:54:10.747Z,931.53
2018-06-12T04:55:10.751Z,931.54
2018-06-12T04:56:10.753Z,931.51
2018-06-12T04:57:10.757Z,931.53
2018-06-12T04:58:10.763Z,931.52
2018-06-12T04:59:10.760Z,931.48
2018-06-12T05:00:10.763Z,931.50
2018-06-12T05:01:10.770Z,931.52
2018-06-12T05:02:10.768Z,931.54
2018-06-12T05:03:10.771Z,931.59
2018-06-12T05:04:10.828Z,931.59
2018-06-12T05:05:10.777Z,931.60
2018-06-12T05:06:10.778Z,931.56
2018-06-12T05:07:10.782Z,931.56
2018-06-12T05:08:10.785Z,931.55
2018-06-12T05:09:10.791Z,931.58
2018-06-12T05:10:10.789Z,931.54
2018-06-12T05:11:10.793Z,931.57
2018-06-12T05:12:10.795Z,931.60
2018-06-12T05:13:10.799Z,931.59
2018-06-12T05:14:10.805Z,931.61
2018-06-12T05:15:10.804Z,931.59
2018-06-12T05:16:10.813Z,931.60
2018-06-12T05:17:10.810Z,931.60
2018-06-12T05:18:10.811Z,931.61
2018-06-12T05:19:10.815Z,931.60
2018-06-12T05:20:10.818Z,931.61
2018-06-12T05:21:10.822Z,931.62
2018-06-12T05:22:10.824Z,931.62
2018-06-12T05:23:10.826Z,931.62
2018-06-12T05:24:10.828Z,931.63
2018-06-12T05:25:10.836Z,931.62
2018-06-12T05:26:10.835Z,931.60
2018-06-12T05:27:10.841Z,931.61
2018-06-12T05:28:10.840Z,931.62
2018-06-12T05:29:10.844Z,931.60
2018-06-12T05:30:10.846Z,931.61
2018-06-12T05:31:10.848Z,931.58
2018-06-12T05:32:10.851Z,931.58
2018-06-12T05:33:10.854Z,931.58
2018-06-12T05:34:10.858Z,931.61
2018-06-12T05:35:10.863Z,931.58
2018-06-12T05:36:10.863Z,931.60
2018-06-12T05:37:10.867Z,931.59
2018-06-12T05:38:10.869Z,931.59
2018-06-12T05:39:10.873Z,931.59
2018-06-12T05:40:10.875Z,931.62
2018-06-12T05:41:10.879Z,931.62
2018-06-12T05:42:10.881Z,931.65
2018-06-12T05:43:10.884Z,931.68
2018-06-12T05:44:10.888Z,931.70
2018-06-12T05:45:10.892Z,931.69
2018-06-12T05:46:10.894Z,931.69
2018-06-12T05:47:10.897Z,931.72
2018-06-12T05:48:10.900Z,931.72
2018-06-12T05:49:10.904Z,931.70
2018-06-12T05:50:10.906Z,931.72
2018-06-12T05:51:10.909Z,931.69
2018-06-12T05:52:10.913Z,931.72
2018-06-12T05:53:10.916Z,931.74
2018-06-12T05:54:10.919Z,931.73
2018-06-12T05:55:10.923Z,931.78
2018-06-12T05:56:10.925Z,931.79
2018-06-12T05:57:10.931Z,931.82
2018-06-12T05:58:10.932Z,931.84
2018-06-12T05:59:10.936Z,931.88
2018-06-12T06:00:10.938Z,931.82
2018-06-12T06:01:10.974Z,931.83
2018-06-12T06:02:10.944Z,931.83
2018-06-12T06:03:10.952Z,931.86
2018-06-12T06:04:10.952Z,931.85
2018-06-12T06:05:10.957Z,931.87
2018-06-12T06:06:10.959Z,931.86
2018-06-12T06:07:10.963Z,931.90
2018-06-12T06:08:10.967Z,931.88
2018-06-12T06:09:10.994Z,931.91
2018-06-12T06:10:11.236Z,931.94
2018-06-12T06:11:10.982Z,931.92
2018-06-12T06:12:10.981Z,931.91
2018-06-12T06:13:10.987Z,931.92
2018-06-12T06:14:10.989Z,931.90
2018-06-12T06:15:10.992Z,931.91
2018-06-12T06:16:10.997Z,931.86
2018-06-12T06:17:11.002Z,931.86
2018-06-12T06:18:11.008Z,931.90
2018-06-12T06:19:11.009Z,931.91
2018-06-12T06:20:11.012Z,931.92
2018-06-12T06:21:11.020Z,931.91
2018-06-12T06:22:11.021Z,931.91
2018-06-12T06:23:11.027Z,931.90
2018-06-12T06:24:11.031Z,931.88
2018-06-12T06:25:11.033Z,931.88
2018-06-12T06:26:11.036Z,931.86
2018-06-12T06:27:11.040Z,931.86
2018-06-12T06:28:11.044Z,931.87
2018-06-12T06:29:11.047Z,931.90
2018-06-12T06:30:11.051Z,931.89
2018-06-12T06:31:11.054Z,931.90
2018-06-12T06:32:11.058Z,931.93
2018-06-12T06:33:11.064Z,931.93
2018-06-12T06:34:11.066Z,931.96
2018-06-12T06:35:11.069Z,931.98
2018-06-12T06:36:11.090Z,931.98
2018-06-12T06:37:11.079Z,932.02
2018-06-12T06:38:11.082Z,932.05
2018-06-12T06:39:11.087Z,932.04
2018-06-12T06:40:11.090Z,932.08
2018-06-12T06:41:11.094Z,932.09
2018-06-12T06:42:11.098Z,932.04
2018-06-12T06:43:11.104Z,932.04
2018-06-12T06:44:11.108Z,932.06
2018-06-12T06:45:11.112Z,932.05
2018-06-12T06:46:11.115Z,932.07
2018-06-12T06:47:11.119Z,932.06
2018-06-12T06:48:11.124Z,932.06
2018-06-12T06:49:11.128Z,932.04
2018-06-12T06:50:11.132Z,932.09
2018-06-12T06:51:11.136Z,932.10
2018-06-12T06:52:11.142Z,932.12
2018-06-12T06:53:11.146Z,932.16
2018-06-12T06:54:11.149Z,932.12
2018-06-12T06:55:11.155Z,932.11
2018-06-12T06:56:11.160Z,932.12
2018-06-12T06:57:11.164Z,932.08
2018-06-12T06:58:11.167Z,932.02
2018-06-12T06:59:11.174Z,932.05
2018-06-12T07:00:11.178Z,932.07
2018-06-12T07:01:11.182Z,932.07
2018-06-12T07:02:11.185Z,932.06
2018-06-12T07:03:11.189Z,932.06
2018-06-12T07:04:11.195Z,932.08
2018-06-12T07:05:11.200Z,932.08
2018-06-12T07:06:11.203Z,932.04
2018-06-12T07:07:11.206Z,932.06
2018-06-12T07:08:11.212Z,932.05
2018-06-12T07:09:11.287Z,932.07
2018-06-12T07:10:11.218Z,932.01
2018-06-12T07:11:11.223Z,932.03
2018-06-12T07:12:11.230Z,931.99
2018-06-12T07:13:11.232Z,931.98
2018-06-12T07:14:11.243Z,931.97
2018-06-12T07:15:11.244Z,931.99
2018-06-12T07:16:11.249Z,931.95
2018-06-12T07:17:11.248Z,931.96
2018-06-12T07:18:11.254Z,931.97
2018-06-12T07:19:11.257Z,931.98
2018-06-12T07:20:11.263Z,931.98
2018-06-12T07:21:11.265Z,931.97
2018-06-12T07:22:11.268Z,931.95
2018-06-12T07:23:11.272Z,931.96
2018-06-12T07:24:11.454Z,931.93
2018-06-12T07:25:11.282Z,931.89
2018-06-12T07:26:11.284Z,931.91
2018-06-12T07:27:11.290Z,931.91
2018-06-12T07:28:11.292Z,931.90
2018-06-12T07:29:11.298Z,931.91
2018-06-12T07:30:11.326Z,931.90
2018-06-12T07:31:11.305Z,931.92
2018-06-12T07:32:11.318Z,931.91
2018-06-12T07:33:11.314Z,931.94
2018-06-12T07:34:11.318Z,931.89
2018-06-12T07:35:11.323Z,931.87
2018-06-12T07:36:11.326Z,931.90
2018-06-12T07:37:11.331Z,931.91
2018-06-12T07:38:11.334Z,931.90
2018-06-12T07:39:11.342Z,931.87
2018-06-12T07:40:11.343Z,931.88
2018-06-12T07:41:11.347Z,931.89
2018-06-12T07:42:11.352Z,931.89
2018-06-12T07:43:11.356Z,931.91
2018-06-12T07:44:11.655Z,931.87
2018-06-12T07:45:11.365Z,931.88
2018-06-12T07:46:11.368Z,931.89
2018-06-12T07:47:11.373Z,931.87
2018-06-12T07:48:11.378Z,931.86
2018-06-12T07:49:11.382Z,931.86
2018-06-12T07:50:11.385Z,931.86
2018-06-12T07:51:11.390Z,931.79
2018-06-12T07:52:11.395Z,931.83
2018-06-12T07:53:11.402Z,931.80
2018-06-12T07:54:11.404Z,931.81
2018-06-12T07:55:11.409Z,931.82
2018-06-12T07:56:11.411Z,931.80
2018-06-12T07:57:11.416Z,931.79
2018-06-12T07:58:11.423Z,931.79
2018-06-12T07:59:11.424Z,931.80
2018-06-12T08:00:11.429Z,931.78
2018-06-12T08:01:11.434Z,931.78
2018-06-12T08:02:11.437Z,931.79
2018-06-12T08:03:11.442Z,931.81
2018-06-12T08:04:11.448Z,931.82
2018-06-12T08:05:11.452Z,931.82
2018-06-12T08:06:11.633Z,931.81
2018-06-12T08:07:11.460Z,931.84
2018-06-12T08:08:11.464Z,931.80
2018-06-12T08:09:11.468Z,931.84
2018-06-12T08:10:11.473Z,931.81
2018-06-12T08:11:11.480Z,931.83
2018-06-12T08:12:11.480Z,931.84
2018-06-12T08:13:11.487Z,931.81
2018-06-12T08:14:11.490Z,931.85
2018-06-12T08:15:11.494Z,931.87
2018-06-12T08:16:11.500Z,931.87
2018-06-12T08:17:11.504Z,931.97
2018-06-12T08:18:11.507Z,932.02
2018-06-12T08:19:11.515Z,931.90
2018-06-12T08:20:11.520Z,931.84
2018-06-12T08:21:11.525Z,931.87
2018-06-12T08:22:11.530Z,931.97
2018-06-12T08:23:11.537Z,931.94
2018-06-12T08:24:11.543Z,931.85
2018-06-12T08:25:11.549Z,931.91
2018-06-12T08:26:11.557Z,931.82
2018-06-12T08:27:11.562Z,931.97
2018-06-12T08:28:11.570Z,931.83
2018-06-12T08:29:11.579Z,931.78
2018-06-12T08:30:11.607Z,931.91
2018-06-12T08:31:11.595Z,931.90
2018-06-12T08:32:11.598Z,931.74
2018-06-12T08:33:11.607Z,931.73
2018-06-12T08:34:11.614Z,931.74
2018-06-12T08:35:11.621Z,931.89
2018-06-12T08:36:11.633Z,931.87
2018-06-12T08:37:11.637Z,931.83
2018-06-12T08:38:11.643Z,931.71
2018-06-12T08:39:11.651Z,931.69
2018-06-12T08:40:11.660Z,931.70
2018-06-12T08:41:11.669Z,931.67
2018-06-12T08:42:11.676Z,931.63
2018-06-12T08:43:11.682Z,931.67
2018-06-12T08:44:11.689Z,931.66
2018-06-12T08:45:11.696Z,931.64
2018-06-12T08:46:11.705Z,931.61
2018-06-12T08:47:11.716Z,931.63
2018-06-12T08:48:11.716Z,931.56
2018-06-12T08:49:11.723Z,931.57
2018-06-12T08:50:11.730Z,931.59
2018-06-12T08:51:11.735Z,931.57
2018-06-12T08:52:11.741Z,931.61
2018-06-12T08:53:11.747Z,931.57
2018-06-12T08:54:11.752Z,931.58
2018-06-12T08:55:11.761Z,931.57
2018-06-12T08:56:11.766Z,931.58
2018-06-12T08:57:11.770Z,931.55
2018-06-12T08:58:11.777Z,931.58
2018-06-12T08:59:11.781Z,931.55
2018-06-12T09:00:11.787Z,931.56
2018-06-12T09:01:11.792Z,931.54
2018-06-12T09:02:11.796Z,931.57
2018-06-12T09:03:11.802Z,931.58
2018-06-12T09:04:11.806Z,931.56
2018-06-12T09:05:11.812Z,931.58
2018-06-12T09:06:11.851Z,931.60
2018-06-12T09:07:11.822Z,931.64
2018-06-12T09:08:11.827Z,931.66
2018-06-12T09:09:11.832Z,931.64
2018-06-12T09:10:11.835Z,931.62
2018-06-12T09:11:11.842Z,931.64
2018-06-12T09:12:11.851Z,931.66
2018-06-12T09:13:11.853Z,931.61
2018-06-12T09:14:11.856Z,931.57
2018-06-12T09:15:11.859Z,931.54
2018-06-12T09:16:11.864Z,931.53
2018-06-12T09:17:11.870Z,931.54
2018-06-12T09:18:11.874Z,931.57
2018-06-12T09:19:11.879Z,931.57
2018-06-12T09:20:11.883Z,931.56
2018-06-12T09:21:11.888Z,931.59
2018-06-12T09:22:11.890Z,931.58
2018-06-12T09:23:11.896Z,931.60
2018-06-12T09:24:11.899Z,931.62
2018-06-12T09:25:11.938Z,931.62
2018-06-12T09:26:11.908Z,931.61
2018-06-12T09:27:11.917Z,931.61
2018-06-12T09:28:11.921Z,931.63
2018-06-12T09:29:11.922Z,931.63
2018-06-12T09:30:11.924Z,931.63
2018-06-12T09:31:11.929Z,931.64
2018-06-12T09:32:11.933Z,931.65
2018-06-12T09:33:11.937Z,931.66
2018-06-12T09:34:11.940Z,931.67
2018-06-12T09:35:11.946Z,931.64
2018-06-12T09:36:11.950Z,931.60
2018-06-12T09:37:11.954Z,931.65
2018-06-12T09:38:11.957Z,931.63
2018-06-12T09:39:11.962Z,931.66
2018-06-12T09:40:11.966Z,931.67
2018-06-12T09:41:12.199Z,931.64
2018-06-12T09:42:12.013Z,931.65
2018-06-12T09:43:11.981Z,931.62
2018-06-12T09:44:11.983Z,931.63
2018-06-12T09:45:11.986Z,931.61
2018-06-12T09:46:11.996Z,931.55
2018-06-12T09:47:11.994Z,931.54
2018-06-12T09:48:12.003Z,931.51
2018-06-12T09:49:12.003Z,931.49
2018-06-12T09:50:12.007Z,931.50
2018-06-12T09:51:12.011Z,931.50
2018-06-12T09:52:12.021Z,931.49
2018-06-12T09:53:12.038Z,931.53
2018-06-12T09:54:12.024Z,931.54
2018-06-12T09:55:12.028Z,931.52
2018-06-12T09:56:12.033Z,931.57
2018-06-12T09:57:12.039Z,931.57
2018-06-12T09:58:12.042Z,931.54
2018-06-12T09:59:12.069Z,931.56
2018-06-12T10:00:12.070Z,931.55
2018-06-12T10:01:12.092Z,931.55
2018-06-12T10:02:12.060Z,931.54
2018-06-12T10:03:12.065Z,931.59
2018-06-12T10:04:12.069Z,931.57
2018-06-12T10:05:12.178Z,931.56
2018-06-12T10:06:12.144Z,931.55
2018-06-12T10:07:12.082Z,931.51
2018-06-12T10:08:12.088Z,931.52
2018-06-12T10:09:12.352Z,931.48
2018-06-12T10:10:12.099Z,931.52
2018-06-12T10:11:12.186Z,931.51
2018-06-12T10:12:12.107Z,931.53
2018-06-12T10:13:12.114Z,931.46
2018-06-12T10:14:12.117Z,931.53
2018-06-12T10:15:12.123Z,931.53
2018-06-12T10:16:12.129Z,931.49
2018-06-12T10:17:12.133Z,931.50
2018-06-12T10:18:12.138Z,931.46
2018-06-12T10:19:12.144Z,931.45
2018-06-12T10:20:12.149Z,931.48
2018-06-12T10:21:12.154Z,931.48
2018-06-12T10:22:12.157Z,931.49
2018-06-12T10:23:12.163Z,931.51
2018-06-12T10:24:12.168Z,931.48
2018-06-12T10:25:12.174Z,931.50
2018-06-12T10:26:12.180Z,931.48
2018-06-12T10:27:12.183Z,931.48
2018-06-12T10:28:12.189Z,931.48
2018-06-12T10:29:12.193Z,931.50
2018-06-12T10:30:12.199Z,931.50
2018-06-12T10:31:12.202Z,931.54
2018-06-12T10:32:12.208Z,931.58
2018-06-12T10:33:12.213Z,931.51
2018-06-12T10:34:12.216Z,931.55
2018-06-12T10:35:12.223Z,931.53
2018-06-12T10:36:12.228Z,931.53
2018-06-12T10:37:12.275Z,931.60
2018-06-12T10:38:12.238Z,931.58
2018-06-12T10:39:12.243Z,931.54
2018-06-12T10:40:12.249Z,931.49
2018-06-12T10:41:12.255Z,931.53
2018-06-12T10:42:12.263Z,931.52
2018-06-12T10:43:12.266Z,931.51
2018-06-12T10:44:12.272Z,931.40
2018-06-12T10:45:12.282Z,931.41
2018-06-12T10:46:12.285Z,931.34
2018-06-12T10:47:12.291Z,931.39
2018-06-12T10:48:12.297Z,931.39
2018-06-12T10:49:12.304Z,931.43
2018-06-12T10:50:12.311Z,931.36
2018-06-12T10:51:12.347Z,931.33
2018-06-12T10:52:12.326Z,931.29
2018-06-12T10:53:12.332Z,931.31
2018-06-12T10:54:12.361Z,931.32
2018-06-12T10:55:12.347Z,931.28
2018-06-12T10:56:12.375Z,931.26
2018-06-12T10:57:12.365Z,931.27
2018-06-12T10:58:12.370Z,931.24
2018-06-12T10:59:12.378Z,931.27
2018-06-12T11:00:12.387Z,931.24
2018-06-12T11:01:12.395Z,931.23
2018-06-12T11:02:12.403Z,931.19
2018-06-12T11:03:12.410Z,931.17
2018-06-12T11:04:12.449Z,931.09
2018-06-12T11:05:12.428Z,931.09
2018-06-12T11:06:12.434Z,931.11
2018-06-12T11:07:12.444Z,931.11
2018-06-12T11:08:12.453Z,931.14
2018-06-12T11:09:12.459Z,931.16
2018-06-12T11:10:12.467Z,931.15
2018-06-12T11:11:12.476Z,931.12
2018-06-12T11:12:12.484Z,931.11
2018-06-12T11:13:12.493Z,931.12
2018-06-12T11:14:12.500Z,931.09
2018-06-12T11:15:12.533Z,931.11
2018-06-12T11:16:12.524Z,931.11
2018-06-12T11:17:12.525Z,931.13
2018-06-12T11:18:12.533Z,931.11
2018-06-12T11:19:12.542Z,931.10
2018-06-12T11:20:12.547Z,931.04
2018-06-12T11:21:12.556Z,931.01
2018-06-12T11:22:12.563Z,931.02
2018-06-12T11:23:12.570Z,931.01
2018-06-12T11:24:12.576Z,931.02
2018-06-12T11:25:12.585Z,931.00
2018-06-12T11:26:12.590Z,930.93
2018-06-12T11:27:12.730Z,930.95
2018-06-12T11:28:12.605Z,930.86
2018-06-12T11:29:12.834Z,930.84
2018-06-12T11:30:12.616Z,930.86
2018-06-12T11:31:12.623Z,930.84
2018-06-12T11:32:12.630Z,930.81
2018-06-12T11:33:12.716Z,930.82
2018-06-12T11:34:12.641Z,930.75
2018-06-12T11:35:12.649Z,930.75
2018-06-12T11:36:12.658Z,930.71
2018-06-12T11:37:12.719Z,930.66
2018-06-12T11:38:12.908Z,930.62
2018-06-12T11:39:12.673Z,930.53
2018-06-12T11:40:12.679Z,930.52
2018-06-12T11:41:12.687Z,930.48
2018-06-12T11:42:12.690Z,930.45
2018-06-12T11:43:12.697Z,930.43
2018-06-12T11:44:12.701Z,930.41
2018-06-12T11:45:12.709Z,930.39
2018-06-12T11:46:12.759Z,930.31
2018-06-12T11:47:12.718Z,930.32
2018-06-12T11:48:12.723Z,930.28
2018-06-12T11:49:12.729Z,930.30
2018-06-12T11:50:12.734Z,930.24
2018-06-12T11:51:12.741Z,930.26
2018-06-12T11:52:12.747Z,930.23
2018-06-12T11:53:12.754Z,930.25
2018-06-12T11:54:12.758Z,930.23
2018-06-12T11:55:12.765Z,930.20
2018-06-12T11:56:12.769Z,930.17
2018-06-12T11:57:12.775Z,930.23
2018-06-12T11:58:12.781Z,930.23
2018-06-12T11:59:12.788Z,930.27
2018-06-12T12:00:12.795Z,930.24
2018-06-12T12:01:12.816Z,930.20
2018-06-12T12:02:12.805Z,930.19
2018-06-12T12:03:12.826Z,930.22
2018-06-12T12:04:12.815Z,930.21
2018-06-12T12:05:12.822Z,930.22
2018-06-12T12:06:12.825Z,930.22
2018-06-12T12:07:12.831Z,930.21
2018-06-12T12:08:12.836Z,930.21
2018-06-12T12:09:12.842Z,930.23
2018-06-12T12:10:12.846Z,930.18
2018-06-12T12:11:12.853Z,930.15
2018-06-12T12:12:12.858Z,930.14
2018-06-12T12:13:12.862Z,930.13
2018-06-12T12:14:12.868Z,930.14
2018-06-12T12:15:12.872Z,930.10
2018-06-12T12:16:12.877Z,930.08
2018-06-12T12:17:12.887Z,930.04
2018-06-12T12:18:12.888Z,930.03
2018-06-12T12:19:12.899Z,930.01
2018-06-12T12:20:12.899Z,929.98
2018-06-12T12:21:12.905Z,929.96
2018-06-12T12:22:13.008Z,929.94
2018-06-12T12:23:13.014Z,929.94
2018-06-12T12:24:12.919Z,929.91
2018-06-12T12:25:12.924Z,929.93
2018-06-12T12:26:12.930Z,929.89
2018-06-12T12:27:12.935Z,929.91
2018-06-12T12:28:12.942Z,929.92
2018-06-12T12:29:12.945Z,929.89